sensor_id;sensor_type;location;lat;lon;timestamp;pressure;altitude;pressure_sealevel;temperature
65738;BMP280;52478;51.844;6.582;2023-06-10T00:02:23;101229.22;;;27.22
65738;BMP280;52478;51.844;6.582;2023-06-10T00:04:51;101220.78;;;27.22
65738;BMP280;52478;51.844;6.582;2023-06-10T00:07:18;101223.59;;;27.22
65738;BMP280;52478;51.844;6.582;2023-06-10T00:09:44;101222.81;;;27.22
65738;BMP280;52478;51.844;6.582;2023-06-10T00:12:11;101231.25;;;27.22
65738;BMP280;52478;51.844;6.582;2023-06-10T00:14:39;101220.19;;;27.16
65738;BMP280;52478;51.844;6.582;2023-06-10T00:17:06;101229.22;;;27.22
65738;BMP280;52478;51.844;6.582;2023-06-10T00:19:35;101234.84;;;27.22
65738;BMP280;52478;51.844;6.582;2023-06-10T00:22:02;101236.88;;;27.22
65738;BMP280;52478;51.844;6.582;2023-06-10T00:24:30;101234.06;;;27.22
65738;BMP280;52478;51.844;6.582;2023-06-10T00:26:56;101232.59;;;27.21
65738;BMP280;52478;51.844;6.582;2023-06-10T00:29:22;101233.31;;;27.21
65738;BMP280;52478;51.844;6.582;2023-06-10T00:31:49;101233.31;;;27.21
65738;BMP280;52478;51.844;6.582;2023-06-10T00:34:15;101227.69;;;27.21
65738;BMP280;52478;51.844;6.582;2023-06-10T00:36:42;101234.06;;;27.22
65738;BMP280;52478;51.844;6.582;2023-06-10T00:39:09;101231.09;;;27.20
65738;BMP280;52478;51.844;6.582;2023-06-10T00:41:36;101233.31;;;27.21
65738;BMP280;52478;51.844;6.582;2023-06-10T00:44:03;101234.63;;;27.20
65738;BMP280;52478;51.844;6.582;2023-06-10T00:46:29;101231.81;;;27.20
65738;BMP280;52478;51.844;6.582;2023-06-10T00:48:57;101227.34;;;27.17
65738;BMP280;52478;51.844;6.582;2023-06-10T00:51:23;101233.13;;;27.19
65738;BMP280;52478;51.844;6.582;2023-06-10T00:53:52;101231.81;;;27.20
65738;BMP280;52478;51.844;6.582;2023-06-10T00:56:20;101234.47;;;27.18
65738;BMP280;52478;51.844;6.582;2023-06-10T00:58:47;101230.88;;;27.18
65738;BMP280;52478;51.844;6.582;2023-06-10T01:01:14;101235.16;;;27.19
65738;BMP280;52478;51.844;6.582;2023-06-10T01:03:40;101229.56;;;27.19
65738;BMP280;52478;51.844;6.582;2023-06-10T01:06:13;101228.84;;;27.18
65738;BMP280;52478;51.844;6.582;2023-06-10T01:08:46;101229.22;;;27.15
65738;BMP280;52478;51.844;6.582;2023-06-10T01:11:21;101238.56;;;27.17
65738;BMP280;52478;51.844;6.582;2023-06-10T01:13:50;101240.63;;;27.17
65738;BMP280;52478;51.844;6.582;2023-06-10T01:16:18;101238.56;;;27.17
65738;BMP280;52478;51.844;6.582;2023-06-10T01:18:45;101249.06;;;27.17
65738;BMP280;52478;51.844;6.582;2023-06-10T01:21:19;101244.19;;;27.17
65738;BMP280;52478;51.844;6.582;2023-06-10T01:23:45;101249.06;;;27.17
65738;BMP280;52478;51.844;6.582;2023-06-10T01:26:12;101248.28;;;27.16
65738;BMP280;52478;51.844;6.582;2023-06-10T01:28:46;101254.69;;;27.17
65738;BMP280;52478;51.844;6.582;2023-06-10T01:31:17;101248.28;;;27.16
65738;BMP280;52478;51.844;6.582;2023-06-10T01:33:49;101245.31;;;27.14
65738;BMP280;52478;51.844;6.582;2023-06-10T01:36:18;101251.69;;;27.15
65738;BMP280;52478;51.844;6.582;2023-06-10T01:38:46;101250.94;;;27.14
65738;BMP280;52478;51.844;6.582;2023-06-10T01:41:15;101250.16;;;27.14
65738;BMP280;52478;51.844;6.582;2023-06-10T01:43:43;101242.31;;;27.12
65738;BMP280;52478;51.844;6.582;2023-06-10T01:46:10;101250.94;;;27.14
65738;BMP280;52478;51.844;6.582;2023-06-10T01:48:37;101243.81;;;27.13
65738;BMP280;52478;51.844;6.582;2023-06-10T01:51:03;101244.53;;;27.14
65738;BMP280;52478;51.844;6.582;2023-06-10T01:53:31;101239.53;;;27.12
65738;BMP280;52478;51.844;6.582;2023-06-10T01:55:58;101242.31;;;27.12
65738;BMP280;52478;51.844;6.582;2023-06-10T01:58:25;101245.13;;;27.12
65738;BMP280;52478;51.844;6.582;2023-06-10T02:00:51;101241.56;;;27.12
65738;BMP280;52478;51.844;6.582;2023-06-10T02:03:18;101247.19;;;27.12
65738;BMP280;52478;51.844;6.582;2023-06-10T02:05:44;101242.31;;;27.12
65738;BMP280;52478;51.844;6.582;2023-06-10T02:08:11;101245.69;;;27.11
65738;BMP280;52478;51.844;6.582;2023-06-10T02:10:39;101247.19;;;27.12
65738;BMP280;52478;51.844;6.582;2023-06-10T02:13:06;101249.22;;;27.11
65738;BMP280;52478;51.844;6.582;2023-06-10T02:15:32;101249.03;;;27.09
65738;BMP280;52478;51.844;6.582;2023-06-10T02:17:59;101249.75;;;27.10
65738;BMP280;52478;51.844;6.582;2023-06-10T02:20:25;101250.53;;;27.10
65738;BMP280;52478;51.844;6.582;2023-06-10T02:22:52;101250.53;;;27.10
65738;BMP280;52478;51.844;6.582;2023-06-10T02:25:18;101252.56;;;27.10
65738;BMP280;52478;51.844;6.582;2023-06-10T02:27:46;101247.72;;;27.10
65738;BMP280;52478;51.844;6.582;2023-06-10T02:30:13;101250.53;;;27.10
65738;BMP280;52478;51.844;6.582;2023-06-10T02:32:40;101248.28;;;27.09
65738;BMP280;52478;51.844;6.582;2023-06-10T02:35:07;101255.38;;;27.10
65738;BMP280;52478;51.844;6.582;2023-06-10T02:37:37;101253.16;;;27.08
65738;BMP280;52478;51.844;6.582;2023-06-10T02:40:05;101245.47;;;27.09
65738;BMP280;52478;51.844;6.582;2023-06-10T02:42:32;101253.16;;;27.08
65738;BMP280;52478;51.844;6.582;2023-06-10T02:44:59;101249.03;;;27.09
65738;BMP280;52478;51.844;6.582;2023-06-10T02:47:27;101259.53;;;27.09
65738;BMP280;52478;51.844;6.582;2023-06-10T02:49:53;101253.16;;;27.08
65738;BMP280;52478;51.844;6.582;2023-06-10T02:52:19;101252.41;;;27.08
65738;BMP280;52478;51.844;6.582;2023-06-10T02:54:46;101258.03;;;27.08
65738;BMP280;52478;51.844;6.582;2023-06-10T02:57:13;101257.25;;;27.07
65738;BMP280;52478;51.844;6.582;2023-06-10T02:59:39;101251.63;;;27.07
65738;BMP280;52478;51.844;6.582;2023-06-10T03:02:08;101246.78;;;27.08
65738;BMP280;52478;51.844;6.582;2023-06-10T03:04:34;101261.38;;;27.06
65738;BMP280;52478;51.844;6.582;2023-06-10T03:07:03;101255.75;;;27.06
65738;BMP280;52478;51.844;6.582;2023-06-10T03:09:32;101253.50;;;27.05
65738;BMP280;52478;51.844;6.582;2023-06-10T03:11:58;101255.75;;;27.06
65738;BMP280;52478;51.844;6.582;2023-06-10T03:14:25;101262.88;;;27.07
65738;BMP280;52478;51.844;6.582;2023-06-10T03:16:52;101263.47;;;27.06
65738;BMP280;52478;51.844;6.582;2023-06-10T03:19:20;101259.91;;;27.05
65738;BMP280;52478;51.844;6.582;2023-06-10T03:21:49;101265.53;;;27.05
65738;BMP280;52478;51.844;6.582;2023-06-10T03:24:16;101267.00;;;27.06
65738;BMP280;52478;51.844;6.582;2023-06-10T03:26:43;101265.53;;;27.05
65738;BMP280;52478;51.844;6.582;2023-06-10T03:29:09;101265.53;;;27.05
65738;BMP280;52478;51.844;6.582;2023-06-10T03:31:36;101269.63;;;27.04
65738;BMP280;52478;51.844;6.582;2023-06-10T03:34:03;101271.91;;;27.06
65738;BMP280;52478;51.844;6.582;2023-06-10T03:36:31;101269.63;;;27.04
65738;BMP280;52478;51.844;6.582;2023-06-10T03:38:58;101269.63;;;27.04
65738;BMP280;52478;51.844;6.582;2023-06-10T03:41:24;101269.63;;;27.04
65738;BMP280;52478;51.844;6.582;2023-06-10T03:43:51;101269.63;;;27.04
65738;BMP280;52478;51.844;6.582;2023-06-10T03:46:18;101271.69;;;27.04
65738;BMP280;52478;51.844;6.582;2023-06-10T03:48:44;101280.88;;;27.04
65738;BMP280;52478;51.844;6.582;2023-06-10T03:51:10;101270.94;;;27.03
65738;BMP280;52478;51.844;6.582;2023-06-10T03:53:38;101280.88;;;27.04
65738;BMP280;52478;51.844;6.582;2023-06-10T03:56:05;101273.75;;;27.03
65738;BMP280;52478;51.844;6.582;2023-06-10T03:58:31;101276.00;;;27.05
65738;BMP280;52478;51.844;6.582;2023-06-10T04:00:58;101271.69;;;27.04
65738;BMP280;52478;51.844;6.582;2023-06-10T04:03:25;101276.75;;;27.05
65738;BMP280;52478;51.844;6.582;2023-06-10T04:05:51;101276.75;;;27.05
65738;BMP280;52478;51.844;6.582;2023-06-10T04:08:18;101272.63;;;27.06
65738;BMP280;52478;51.844;6.582;2023-06-10T04:10:47;101276.19;;;27.07
65738;BMP280;52478;51.844;6.582;2023-06-10T04:13:13;101273.38;;;27.07
65738;BMP280;52478;51.844;6.582;2023-06-10T04:15:40;101279.75;;;27.07
65738;BMP280;52478;51.844;6.582;2023-06-10T04:18:07;101281.28;;;27.08
65738;BMP280;52478;51.844;6.582;2023-06-10T04:20:33;101282.00;;;27.09
65738;BMP280;52478;51.844;6.582;2023-06-10T04:23:00;101282.75;;;27.09
65738;BMP280;52478;51.844;6.582;2023-06-10T04:25:26;101287.06;;;27.10
65738;BMP280;52478;51.844;6.582;2023-06-10T04:27:55;101285.03;;;27.11
65738;BMP280;52478;51.844;6.582;2023-06-10T04:30:21;101292.91;;;27.12
65738;BMP280;52478;51.844;6.582;2023-06-10T04:32:48;101295.72;;;27.12
65738;BMP280;52478;51.844;6.582;2023-06-10T04:35:15;101301.53;;;27.14
65738;BMP280;52478;51.844;6.582;2023-06-10T04:37:41;101301.53;;;27.14
65738;BMP280;52478;51.844;6.582;2023-06-10T04:40:08;101309.41;;;27.16
65738;BMP280;52478;51.844;6.582;2023-06-10T04:42:36;101301.69;;;27.16
65738;BMP280;52478;51.844;6.582;2023-06-10T04:45:05;101299.66;;;27.17
65738;BMP280;52478;51.844;6.582;2023-06-10T04:47:32;101301.94;;;27.18
65738;BMP280;52478;51.844;6.582;2023-06-10T04:49:58;101299.81;;;27.19
65738;BMP280;52478;51.844;6.582;2023-06-10T04:52:25;101303.41;;;27.19
65738;BMP280;52478;51.844;6.582;2023-06-10T04:54:51;101295.75;;;27.20
65738;BMP280;52478;51.844;6.582;2023-06-10T04:57:18;101304.34;;;27.22
65738;BMP280;52478;51.844;6.582;2023-06-10T04:59:45;101300.78;;;27.21
65738;BMP280;52478;51.844;6.582;2023-06-10T05:02:13;101303.81;;;27.23
65738;BMP280;52478;51.844;6.582;2023-06-10T05:04:39;101306.63;;;27.23
65738;BMP280;52478;51.844;6.582;2023-06-10T05:07:06;101299.69;;;27.24
65738;BMP280;52478;51.844;6.582;2023-06-10T05:09:32;101305.31;;;27.24
65738;BMP280;52478;51.844;6.582;2023-06-10T05:11:58;101302.69;;;27.26
65738;BMP280;52478;51.844;6.582;2023-06-10T05:14:25;101299.31;;;27.28
65738;BMP280;52478;51.844;6.582;2023-06-10T05:16:52;101305.69;;;27.28
65738;BMP280;52478;51.844;6.582;2023-06-10T05:19:20;101307.19;;;27.29
65738;BMP280;52478;51.844;6.582;2023-06-10T05:21:47;101307.19;;;27.29
65738;BMP280;52478;51.844;6.582;2023-06-10T05:24:13;101300.25;;;27.30
65738;BMP280;52478;51.844;6.582;2023-06-10T05:26:39;101304.56;;;27.31
65738;BMP280;52478;51.844;6.582;2023-06-10T05:29:06;101309.63;;;27.33
65738;BMP280;52478;51.844;6.582;2023-06-10T05:31:33;101309.06;;;27.34
65738;BMP280;52478;51.844;6.582;2023-06-10T05:33:59;101293.72;;;27.35
65738;BMP280;52478;51.844;6.582;2023-06-10T05:36:27;101300.84;;;27.36
65738;BMP280;52478;51.844;6.582;2023-06-10T05:38:54;101302.34;;;27.37
65738;BMP280;52478;51.844;6.582;2023-06-10T05:41:20;101303.84;;;27.38
65738;BMP280;52478;51.844;6.582;2023-06-10T05:43:47;101308.34;;;27.41
65738;BMP280;52478;51.844;6.582;2023-06-10T05:46:13;101307.03;;;27.42
65738;BMP280;52478;51.844;6.582;2023-06-10T05:48:40;101318.28;;;27.42
65738;BMP280;52478;51.844;6.582;2023-06-10T05:51:06;101317.72;;;27.44
65738;BMP280;52478;51.844;6.582;2023-06-10T05:53:34;101320.00;;;27.45
65738;BMP280;52478;51.844;6.582;2023-06-10T05:56:00;101310.22;;;27.46
65738;BMP280;52478;51.844;6.582;2023-06-10T05:58:27;101327.31;;;27.48
65738;BMP280;52478;51.844;6.582;2023-06-10T06:00:53;101314.75;;;27.49
65738;BMP280;52478;51.844;6.582;2023-06-10T06:03:20;101322.63;;;27.51
65738;BMP280;52478;51.844;6.582;2023-06-10T06:05:46;101313.59;;;27.52
65738;BMP280;52478;51.844;6.582;2023-06-10T06:08:12;101320.75;;;27.53
65738;BMP280;52478;51.844;6.582;2023-06-10T06:10:44;101312.50;;;27.55
65738;BMP280;52478;51.844;6.582;2023-06-10T06:13:10;101314.00;;;27.56
65738;BMP280;52478;51.844;6.582;2023-06-10T06:15:37;101314.22;;;27.58
65738;BMP280;52478;51.844;6.582;2023-06-10T06:18:03;101312.88;;;27.59
65738;BMP280;52478;51.844;6.582;2023-06-10T06:20:30;101308.78;;;27.60
65738;BMP280;52478;51.844;6.582;2023-06-10T06:22:56;101317.38;;;27.62
65738;BMP280;52478;51.844;6.582;2023-06-10T06:25:22;101307.66;;;27.63
65738;BMP280;52478;51.844;6.582;2023-06-10T06:27:50;101313.28;;;27.63
65738;BMP280;52478;51.844;6.582;2023-06-10T06:30:17;101312.16;;;27.66
65738;BMP280;52478;51.844;6.582;2023-06-10T06:32:43;101316.50;;;27.67
65738;BMP280;52478;51.844;6.582;2023-06-10T06:35:10;101311.03;;;27.69
65738;BMP280;52478;51.844;6.582;2023-06-10T06:37:36;101323.78;;;27.70
65738;BMP280;52478;51.844;6.582;2023-06-10T06:40:03;101326.81;;;27.72
65738;BMP280;52478;51.844;6.582;2023-06-10T06:42:30;101329.00;;;27.73
65738;BMP280;52478;51.844;6.582;2023-06-10T06:44:58;101324.94;;;27.74
65738;BMP280;52478;51.844;6.582;2023-06-10T06:47:24;101339.16;;;27.76
65738;BMP280;52478;51.844;6.582;2023-06-10T06:49:51;101328.69;;;27.77
65738;BMP280;52478;51.844;6.582;2023-06-10T06:52:18;101327.53;;;27.80
65738;BMP280;52478;51.844;6.582;2023-06-10T06:54:45;101331.13;;;27.80
65738;BMP280;52478;51.844;6.582;2023-06-10T06:57:11;101337.69;;;27.83
65738;BMP280;52478;51.844;6.582;2023-06-10T06:59:37;101335.06;;;27.85
65738;BMP280;52478;51.844;6.582;2023-06-10T07:02:05;101335.63;;;27.83
65738;BMP280;52478;51.844;6.582;2023-06-10T07:04:32;101336.56;;;27.86
65738;BMP280;52478;51.844;6.582;2023-06-10T07:06:58;101341.66;;;27.87
65738;BMP280;52478;51.844;6.582;2023-06-10T07:09:25;101343.88;;;27.89
65738;BMP280;52478;51.844;6.582;2023-06-10T07:11:51;101338.47;;;27.91
65738;BMP280;52478;51.844;6.582;2023-06-10T07:14:18;101336.94;;;27.90
65738;BMP280;52478;51.844;6.582;2023-06-10T07:16:44;101345.56;;;27.92
65738;BMP280;52478;51.844;6.582;2023-06-10T07:19:14;101345.75;;;27.94
65738;BMP280;52478;51.844;6.582;2023-06-10T07:21:41;101347.06;;;27.93
65738;BMP280;52478;51.844;6.582;2023-06-10T07:24:08;101350.09;;;27.95
65738;BMP280;52478;51.844;6.582;2023-06-10T07:26:34;101346.69;;;27.96
65738;BMP280;52478;51.844;6.582;2023-06-10T07:29:01;101350.28;;;27.97
65738;BMP280;52478;51.844;6.582;2023-06-10T07:31:27;101343.31;;;27.98
65738;BMP280;52478;51.844;6.582;2023-06-10T07:33:54;101343.53;;;28.00
65738;BMP280;52478;51.844;6.582;2023-06-10T07:36:21;101343.53;;;28.00
65738;BMP280;52478;51.844;6.582;2023-06-10T07:38:48;101343.69;;;28.02
65738;BMP280;52478;51.844;6.582;2023-06-10T07:41:14;101344.47;;;28.02
65738;BMP280;52478;51.844;6.582;2023-06-10T07:43:43;101341.06;;;28.04
65738;BMP280;52478;51.844;6.582;2023-06-10T07:46:09;101339.00;;;28.04
65738;BMP280;52478;51.844;6.582;2023-06-10T07:48:36;101348.94;;;28.05
65738;BMP280;52478;51.844;6.582;2023-06-10T07:51:02;101345.56;;;28.07
65738;BMP280;52478;51.844;6.582;2023-06-10T07:53:30;101344.28;;;28.08
65738;BMP280;52478;51.844;6.582;2023-06-10T07:55:57;101350.09;;;28.10
65738;BMP280;52478;51.844;6.582;2023-06-10T07:58:23;101350.28;;;28.12
65738;BMP280;52478;51.844;6.582;2023-06-10T08:00:49;101354.59;;;28.13
65738;BMP280;52478;51.844;6.582;2023-06-10T08:03:16;101344.84;;;28.14
65738;BMP280;52478;51.844;6.582;2023-06-10T08:05:42;101345.56;;;28.14
65738;BMP280;52478;51.844;6.582;2023-06-10T08:08:09;101353.44;;;28.16
65738;BMP280;52478;51.844;6.582;2023-06-10T08:10:36;101347.28;;;28.17
65738;BMP280;52478;51.844;6.582;2023-06-10T08:13:03;101349.50;;;28.19
65738;BMP280;52478;51.844;6.582;2023-06-10T08:15:29;101343.34;;;28.20
65738;BMP280;52478;51.844;6.582;2023-06-10T08:17:56;101349.72;;;28.21
65738;BMP280;52478;51.844;6.582;2023-06-10T08:20:22;101345.59;;;28.22
65738;BMP280;52478;51.844;6.582;2023-06-10T08:22:49;101347.09;;;28.23
65738;BMP280;52478;51.844;6.582;2023-06-10T08:25:15;101343.69;;;28.24
65738;BMP280;52478;51.844;6.582;2023-06-10T08:27:43;101337.50;;;28.26
65738;BMP280;52478;51.844;6.582;2023-06-10T08:30:11;101344.63;;;28.27
65738;BMP280;52478;51.844;6.582;2023-06-10T08:32:38;101345.38;;;28.27
65738;BMP280;52478;51.844;6.582;2023-06-10T08:35:05;101344.81;;;28.29
65738;BMP280;52478;51.844;6.582;2023-06-10T08:37:31;101337.84;;;28.30
65738;BMP280;52478;51.844;6.582;2023-06-10T08:39:58;101338.81;;;28.32
65738;BMP280;52478;51.844;6.582;2023-06-10T08:42:28;101333.91;;;28.33
65738;BMP280;52478;51.844;6.582;2023-06-10T08:44:56;101335.41;;;28.34
65738;BMP280;52478;51.844;6.582;2023-06-10T08:47:24;101335.41;;;28.34
65738;BMP280;52478;51.844;6.582;2023-06-10T08:49:53;101335.59;;;28.36
65738;BMP280;52478;51.844;6.582;2023-06-10T08:52:22;101335.03;;;28.37
65738;BMP280;52478;51.844;6.582;2023-06-10T08:54:56;101341.44;;;28.38
65738;BMP280;52478;51.844;6.582;2023-06-10T08:57:23;101338.81;;;28.40
65738;BMP280;52478;51.844;6.582;2023-06-10T08:59:52;101330.34;;;28.40
65738;BMP280;52478;51.844;6.582;2023-06-10T09:02:20;101336.00;;;28.40
65738;BMP280;52478;51.844;6.582;2023-06-10T09:04:47;101334.69;;;28.41
65738;BMP280;52478;51.844;6.582;2023-06-10T09:07:15;101326.78;;;28.39
65738;BMP280;52478;51.844;6.582;2023-06-10T09:09:42;101327.72;;;28.42
65738;BMP280;52478;51.844;6.582;2023-06-10T09:12:08;101325.66;;;28.42
65738;BMP280;52478;51.844;6.582;2023-06-10T09:14:35;101329.22;;;28.43
65738;BMP280;52478;51.844;6.582;2023-06-10T09:17:02;101332.03;;;28.43
65738;BMP280;52478;51.844;6.582;2023-06-10T09:19:30;101330.72;;;28.44
65738;BMP280;52478;51.844;6.582;2023-06-10T09:21:57;101330.53;;;28.42
65738;BMP280;52478;51.844;6.582;2023-06-10T09:24:24;101326.22;;;28.41
65738;BMP280;52478;51.844;6.582;2023-06-10T09:26:52;101328.47;;;28.42
65738;BMP280;52478;51.844;6.582;2023-06-10T09:29:27;101335.41;;;28.41
65738;BMP280;52478;51.844;6.582;2023-06-10T09:31:54;101331.88;;;28.41
65738;BMP280;52478;51.844;6.582;2023-06-10T09:34:25;101334.47;;;28.39
65738;BMP280;52478;51.844;6.582;2023-06-10T09:36:53;101337.28;;;28.39
65738;BMP280;52478;51.844;6.582;2023-06-10T09:39:19;101336.56;;;28.38
65738;BMP280;52478;51.844;6.582;2023-06-10T09:41:46;101337.13;;;28.37
65738;BMP280;52478;51.844;6.582;2023-06-10T09:44:13;101326.44;;;28.35
65738;BMP280;52478;51.844;6.582;2023-06-10T09:46:41;101336.19;;;28.34
65738;BMP280;52478;51.844;6.582;2023-06-10T09:49:08;101333.91;;;28.33
65738;BMP280;52478;51.844;6.582;2023-06-10T09:51:34;101326.81;;;28.32
65738;BMP280;52478;51.844;6.582;2023-06-10T09:54:03;101326.03;;;28.31
65738;BMP280;52478;51.844;6.582;2023-06-10T09:56:33;101330.16;;;28.30
65738;BMP280;52478;51.844;6.582;2023-06-10T09:59:02;101323.78;;;28.30
65738;BMP280;52478;51.844;6.582;2023-06-10T10:01:30;101319.66;;;28.31
65738;BMP280;52478;51.844;6.582;2023-06-10T10:03:58;101323.78;;;28.30
65738;BMP280;52478;51.844;6.582;2023-06-10T10:06:26;101323.78;;;28.30
65738;BMP280;52478;51.844;6.582;2023-06-10T10:08:52;101320.25;;;28.29
65738;BMP280;52478;51.844;6.582;2023-06-10T10:11:21;101323.06;;;28.29
65738;BMP280;52478;51.844;6.582;2023-06-10T10:13:49;101323.78;;;28.30
65738;BMP280;52478;51.844;6.582;2023-06-10T10:16:17;101323.78;;;28.30
65738;BMP280;52478;51.844;6.582;2023-06-10T10:18:46;101316.47;;;28.27
65738;BMP280;52478;51.844;6.582;2023-06-10T10:21:16;101317.22;;;28.27
65738;BMP280;52478;51.844;6.582;2023-06-10T10:23:51;101315.91;;;28.28
65738;BMP280;52478;51.844;6.582;2023-06-10T10:26:21;101318.72;;;28.28
65738;BMP280;52478;51.844;6.582;2023-06-10T10:28:52;101316.66;;;28.29
65738;BMP280;52478;51.844;6.582;2023-06-10T10:31:21;101318.72;;;28.28
65738;BMP280;52478;51.844;6.582;2023-06-10T10:33:53;101308.75;;;28.27
65738;BMP280;52478;51.844;6.582;2023-06-10T10:36:21;101317.97;;;28.28
65738;BMP280;52478;51.844;6.582;2023-06-10T10:38:48;101313.66;;;28.27
65738;BMP280;52478;51.844;6.582;2023-06-10T10:41:15;101313.66;;;28.27
65738;BMP280;52478;51.844;6.582;2023-06-10T10:43:44;101309.16;;;28.24
65738;BMP280;52478;51.844;6.582;2023-06-10T10:46:13;101303.91;;;28.28
65738;BMP280;52478;51.844;6.582;2023-06-10T10:48:40;101303.13;;;28.27
65738;BMP280;52478;51.844;6.582;2023-06-10T10:51:07;101302.38;;;28.27
65738;BMP280;52478;51.844;6.582;2023-06-10T10:53:34;101302.38;;;28.27
65738;BMP280;52478;51.844;6.582;2023-06-10T10:56:05;101300.88;;;28.26
65738;BMP280;52478;51.844;6.582;2023-06-10T10:58:33;101292.63;;;28.28
65738;BMP280;52478;51.844;6.582;2023-06-10T11:01:10;101291.13;;;28.27
65738;BMP280;52478;51.844;6.582;2023-06-10T11:03:42;101291.13;;;28.27
65738;BMP280;52478;51.844;6.582;2023-06-10T11:06:12;101291.84;;;28.27
65738;BMP280;52478;51.844;6.582;2023-06-10T11:08:46;101282.50;;;28.25
65738;BMP280;52478;51.844;6.582;2023-06-10T11:11:21;101281.38;;;28.28
65738;BMP280;52478;51.844;6.582;2023-06-10T11:14:07;101290.94;;;28.25
65738;BMP280;52478;51.844;6.582;2023-06-10T11:16:40;101287.00;;;28.28
65738;BMP280;52478;51.844;6.582;2023-06-10T11:19:07;101286.22;;;28.27
65738;BMP280;52478;51.844;6.582;2023-06-10T11:21:57;101296.94;;;28.29
65738;BMP280;52478;51.844;6.582;2023-06-10T11:24:23;101284.19;;;28.28
65738;BMP280;52478;51.844;6.582;2023-06-10T11:26:51;101278.56;;;28.28
65738;BMP280;52478;51.844;6.582;2023-06-10T11:29:17;101277.22;;;28.29
65738;BMP280;52478;51.844;6.582;2023-06-10T11:31:49;101281.38;;;28.28
65738;BMP280;52478;51.844;6.582;2023-06-10T11:34:21;101287.75;;;28.28
65738;BMP280;52478;51.844;6.582;2023-06-10T11:36:51;101275.72;;;28.28
65738;BMP280;52478;51.844;6.582;2023-06-10T11:39:19;101282.88;;;28.29
65738;BMP280;52478;51.844;6.582;2023-06-10T11:41:46;101283.63;;;28.29
65738;BMP280;52478;51.844;6.582;2023-06-10T11:44:14;101285.88;;;28.31
65738;BMP280;52478;51.844;6.582;2023-06-10T11:46:40;101280.25;;;28.31
65738;BMP280;52478;51.844;6.582;2023-06-10T11:49:09;101276.13;;;28.32
65738;BMP280;52478;51.844;6.582;2023-06-10T11:51:37;101266.31;;;28.33
65738;BMP280;52478;51.844;6.582;2023-06-10T11:54:05;101274.97;;;28.35
65738;BMP280;52478;51.844;6.582;2023-06-10T11:56:32;101270.84;;;28.36
65738;BMP280;52478;51.844;6.582;2023-06-10T11:58:59;101276.47;;;28.36
65738;BMP280;52478;51.844;6.582;2023-06-10T12:01:30;101277.19;;;28.36
65738;BMP280;52478;51.844;6.582;2023-06-10T12:03:58;101265.19;;;28.36
65738;BMP280;52478;51.844;6.582;2023-06-10T12:06:26;101277.97;;;28.37
65738;BMP280;52478;51.844;6.582;2023-06-10T12:08:53;101266.72;;;28.37
65738;BMP280;52478;51.844;6.582;2023-06-10T12:11:20;101262.56;;;28.38
65738;BMP280;52478;51.844;6.582;2023-06-10T12:13:49;101266.72;;;28.37
65738;BMP280;52478;51.844;6.582;2023-06-10T12:16:16;101261.06;;;28.37
65738;BMP280;52478;51.844;6.582;2023-06-10T12:18:43;101255.44;;;28.37
65738;BMP280;52478;51.844;6.582;2023-06-10T12:21:23;101249.81;;;28.37
65738;BMP280;52478;51.844;6.582;2023-06-10T12:24:03;101252.63;;;28.37
65738;BMP280;52478;51.844;6.582;2023-06-10T12:26:38;101253.94;;;28.36
65738;BMP280;52478;51.844;6.582;2023-06-10T12:29:22;101249.63;;;28.35
65738;BMP280;52478;51.844;6.582;2023-06-10T12:32:02;101235.53;;;28.35
65738;BMP280;52478;51.844;6.582;2023-06-10T12:34:35;101241.94;;;28.35
65738;BMP280;52478;51.844;6.582;2023-06-10T12:37:03;101242.47;;;28.34
65738;BMP280;52478;51.844;6.582;2023-06-10T12:39:32;101237.03;;;28.36
65738;BMP280;52478;51.844;6.582;2023-06-10T12:41:59;101243.25;;;28.34
65738;BMP280;52478;51.844;6.582;2023-06-10T12:44:30;101245.31;;;28.34
65738;BMP280;52478;51.844;6.582;2023-06-10T12:46:57;101241.16;;;28.35
65738;BMP280;52478;51.844;6.582;2023-06-10T12:49:24;101241.16;;;28.35
65738;BMP280;52478;51.844;6.582;2023-06-10T12:51:51;101245.31;;;28.34
65738;BMP280;52478;51.844;6.582;2023-06-10T12:54:18;101235.53;;;28.35
65738;BMP280;52478;51.844;6.582;2023-06-10T12:56:46;101241.16;;;28.35
65738;BMP280;52478;51.844;6.582;2023-06-10T12:59:12;101245.50;;;28.36
65738;BMP280;52478;51.844;6.582;2023-06-10T13:01:39;101235.53;;;28.35
65738;BMP280;52478;51.844;6.582;2023-06-10T13:04:06;101236.31;;;28.35
65738;BMP280;52478;51.844;6.582;2023-06-10T13:06:32;101229.91;;;28.35
65738;BMP280;52478;51.844;6.582;2023-06-10T13:09:02;101234.03;;;28.34
65738;BMP280;52478;51.844;6.582;2023-06-10T13:11:29;101229.16;;;28.34
65738;BMP280;52478;51.844;6.582;2023-06-10T13:13:56;101230.66;;;28.35
65738;BMP280;52478;51.844;6.582;2023-06-10T13:16:23;101230.66;;;28.35
65738;BMP280;52478;51.844;6.582;2023-06-10T13:18:49;101234.22;;;28.36
65738;BMP280;52478;51.844;6.582;2023-06-10T13:21:16;101220.91;;;28.29
65738;BMP280;52478;51.844;6.582;2023-06-10T13:23:44;101237.03;;;28.36
65738;BMP280;52478;51.844;6.582;2023-06-10T13:26:11;101222.22;;;28.35
65738;BMP280;52478;51.844;6.582;2023-06-10T13:28:37;101218.06;;;28.36
65738;BMP280;52478;51.844;6.582;2023-06-10T13:31:05;101224.47;;;28.37
65738;BMP280;52478;51.844;6.582;2023-06-10T13:33:32;101223.69;;;28.36
65738;BMP280;52478;51.844;6.582;2023-06-10T13:35:58;101217.31;;;28.36
65738;BMP280;52478;51.844;6.582;2023-06-10T13:38:25;101225.78;;;28.36
65738;BMP280;52478;51.844;6.582;2023-06-10T13:40:51;101221.66;;;28.37
65738;BMP280;52478;51.844;6.582;2023-06-10T13:43:18;101213.19;;;28.37
65738;BMP280;52478;51.844;6.582;2023-06-10T13:45:44;101211.69;;;28.36
65738;BMP280;52478;51.844;6.582;2023-06-10T13:48:12;101211.13;;;28.37
65738;BMP280;52478;51.844;6.582;2023-06-10T13:50:39;101217.50;;;28.38
65738;BMP280;52478;51.844;6.582;2023-06-10T13:53:05;101210.38;;;28.37
65738;BMP280;52478;51.844;6.582;2023-06-10T13:55:32;101209.06;;;28.38
65738;BMP280;52478;51.844;6.582;2023-06-10T13:57:58;101207.00;;;28.38
65738;BMP280;52478;51.844;6.582;2023-06-10T14:00:24;101202.66;;;28.37